Estación de Curicó
Ultimos registro cada 15 minutos 51
| N° | Estación | Fecha / Hora | Temperatura | Humedad | Lluvia | Velocidad | Dirección | Radiación | Presion |
| 51 | Curicó | 06-05-2026 12:30 | 14,6 | 94,8 | 0 | 1,7 | 354 | 49,4 | 989,9 |
| 50 | Curicó | 06-05-2026 12:15 | 14,4 | 95 | 0,2 | 1,3 | 345 | 46,9 | 989,6 |
| 49 | Curicó | 06-05-2026 12:00 | 14,3 | 95,2 | 0 | 1,7 | 350 | 90,6 | 989,5 |
| 48 | Curicó | 06-05-2026 11:45 | 14,1 | 95,5 | 0 | 1,7 | 4 | 8,1 | 989,9 |
| 47 | Curicó | 06-05-2026 11:30 | 14 | 96,1 | 0 | 1,7 | 355 | 33,1 | 989,7 |
| 46 | Curicó | 06-05-2026 11:15 | 13,9 | 96,8 | 0 | 1 | 345 | 56,9 | 989,7 |
| 45 | Curicó | 06-05-2026 11:00 | 13,8 | 96,9 | 0,2 | 1 | 350 | 28,1 | 989,4 |
| 44 | Curicó | 06-05-2026 10:45 | 13,4 | 97,5 | 0 | 0,7 | 4 | 40,6 | 989,4 |
| 43 | Curicó | 06-05-2026 10:30 | 12,9 | 97,2 | 0,6 | 0,3 | 29 | 40,6 | 989,1 |
| 42 | Curicó | 06-05-2026 10:15 | 12,4 | 97 | 0,8 | 0,7 | 69 | 18,1 | 989,2 |
| 41 | Curicó | 06-05-2026 10:00 | 12,1 | 96,7 | 1,8 | 0 | 142 | 5,6 | 988,9 |
| 40 | Curicó | 06-05-2026 09:45 | 12,1 | 96,4 | 0,2 | 0 | 79 | 3,1 | 988,4 |
| 39 | Curicó | 06-05-2026 09:30 | 12,1 | 96,2 | 0,8 | 0,3 | 73 | 13,1 | 988,6 |
| 38 | Curicó | 06-05-2026 09:15 | 12,2 | 96,2 | 0,2 | 0,3 | 62 | 9,4 | 988,5 |
| 37 | Curicó | 06-05-2026 09:00 | 12,3 | 96,2 | 0 | 0,3 | 48 | 24,4 | 988,1 |
| 36 | Curicó | 06-05-2026 08:45 | 12,1 | 96,2 | 0 | 1 | 58 | 46,9 | 988,2 |
| 35 | Curicó | 06-05-2026 08:30 | 12,1 | 96,2 | 0 | 0,7 | 52 | 61,9 | 988,1 |
| 34 | Curicó | 06-05-2026 08:15 | 12 | 96,4 | 0,2 | 1,3 | 38 | 66,9 | 987,5 |
| 33 | Curicó | 06-05-2026 08:00 | 11,4 | 96,7 | 0 | 0,7 | 20 | 6,9 | 988,1 |
| 32 | Curicó | 06-05-2026 07:45 | 11,3 | 96,5 | 0,2 | 0,7 | 7 | 3,1 | 988,2 |
| 31 | Curicó | 06-05-2026 07:30 | 11,1 | 96,2 | 1 | 0,3 | 20 | 0,6 | 988,1 |
| 30 | Curicó | 06-05-2026 07:15 | 11,1 | 95,7 | 1,2 | 0,3 | 317 | 0,6 | 988 |
| 29 | Curicó | 06-05-2026 07:00 | 10,9 | 95,5 | 0 | 0,3 | 188 | 0,6 | 988 |
| 28 | Curicó | 06-05-2026 06:45 | 10,6 | 95,2 | 0 | 0,3 | 321 | 0,6 | 987,3 |
| 27 | Curicó | 06-05-2026 06:30 | 11,3 | 95,6 | 0 | 1 | 35 | 0,6 | 987,3 |
| 26 | Curicó | 06-05-2026 06:15 | 10,2 | 96,7 | 0 | 1 | 65 | 0,6 | 987,2 |
| 25 | Curicó | 06-05-2026 06:00 | 10,1 | 95,9 | 0 | 1,7 | 87 | 0,6 | 987,2 |
| 24 | Curicó | 06-05-2026 05:45 | 9,9 | 96,7 | 0 | 1 | 90 | 0,6 | 987,4 |
| 23 | Curicó | 06-05-2026 05:30 | 9,4 | 96,1 | 0 | 1 | 69 | 0,6 | 987,5 |
| 22 | Curicó | 06-05-2026 05:15 | 9,9 | 96,3 | 0 | 1 | 87 | 0,6 | 987,5 |
| 21 | Curicó | 06-05-2026 05:00 | 10,3 | 96,3 | 0 | 0,7 | 88 | 0,6 | 987,5 |
| 20 | Curicó | 06-05-2026 04:45 | 10,3 | 96,4 | 0 | 0,7 | 90 | 0,6 | 987,5 |
| 19 | Curicó | 06-05-2026 04:30 | 10,6 | 96,3 | 0 | 1,3 | 83 | 0,6 | 987,4 |
| 18 | Curicó | 06-05-2026 04:15 | 10,4 | 96,5 | 0 | 1 | 66 | 0,6 | 987,5 |
| 17 | Curicó | 06-05-2026 04:00 | 10,4 | 96,4 | 0 | 1 | 60 | 0,6 | 987,7 |
| 16 | Curicó | 06-05-2026 03:45 | 10,1 | 96,6 | 0 | 0,3 | 84 | 0,6 | 987,9 |
| 15 | Curicó | 06-05-2026 03:30 | 9,8 | 96,2 | 0 | 0 | 74 | 0,6 | 988 |
| 14 | Curicó | 06-05-2026 03:15 | 10 | 96,1 | 0 | 0,7 | 67 | 0,6 | 987,9 |
| 13 | Curicó | 06-05-2026 03:00 | 10,1 | 96 | 0 | 0,3 | 73 | 0,6 | 987,9 |
| 12 | Curicó | 06-05-2026 02:45 | 10,1 | 95,5 | 0 | 0 | 70 | 0,6 | 988,2 |
| 11 | Curicó | 06-05-2026 02:30 | 10,5 | 95,5 | 0 | 0,3 | 73 | 0,6 | 988 |
| 10 | Curicó | 06-05-2026 02:15 | 10,4 | 95,2 | 0 | 0 | 94 | 0,6 | 988 |
| 9 | Curicó | 06-05-2026 02:00 | 10,4 | 94,7 | 0 | 0 | 88 | 0,6 | 988,1 |
| 8 | Curicó | 06-05-2026 01:45 | 10,4 | 94,5 | 0 | 0 | 21 | 0,6 | 987,9 |
| 7 | Curicó | 06-05-2026 01:30 | 10,6 | 94,1 | 0 | 0 | 354 | 0,6 | 988,1 |
| 6 | Curicó | 06-05-2026 01:15 | 11,2 | 93,7 | 0 | 0 | 358 | 0,6 | 987,9 |
| 5 | Curicó | 06-05-2026 01:00 | 11,7 | 93,6 | 0 | 0,3 | 10 | 0,6 | 987,9 |
| 4 | Curicó | 06-05-2026 00:45 | 11,7 | 93,3 | 0 | 0 | 21 | 0,6 | 988 |
| 3 | Curicó | 06-05-2026 00:30 | 12 | 93,3 | 0 | 0 | 27 | 0,6 | 988 |
| 2 | Curicó | 06-05-2026 00:15 | 12 | 92,7 | 0 | 0 | 31 | 0,6 | 988,5 |
| 1 | Curicó | 06-05-2026 00:00 | 12,2 | 92,9 | 0 | 0,3 | 42 | 0,6 | 988,3 |